Time;durP1;ratioP1;P1;durP2;ratioP2;P2;SDS_P1;SDS_P2;PMS_P1;PMS_P2;Temp;Humidity;BMP_temperature;BMP_pressure;BME280_temperature;BME280_humidity;BME280_pressure;Samples;Min_cycle;Max_cycle;Signal;HPM_P1;HPM_P2
2022/07/29 00:02:02;;;;;;;1.67;0.40;;;19.20;65.60;;;;;;5056613;28;20063;-80
2022/07/29 00:04:28;;;;;;;2.08;0.50;;;19.10;65.80;;;;;;5038495;28;20061;-80
2022/07/29 00:06:54;;;;;;;6.00;0.50;;;19.10;65.80;;;;;;5056447;28;20067;-80
2022/07/29 00:09:19;;;;;;;3.95;0.60;;;19.10;66.10;;;;;;5038580;28;20032;-80
2022/07/29 00:11:45;;;;;;;2.30;0.52;;;19.10;66.20;;;;;;5054984;28;20036;-80
2022/07/29 00:14:10;;;;;;;2.30;0.57;;;19.10;66.20;;;;;;5056358;28;20029;-80
2022/07/29 00:16:36;;;;;;;3.13;0.75;;;19.00;65.80;;;;;;5038448;28;20029;-80
2022/07/29 00:19:02;;;;;;;5.55;0.40;;;19.10;66.20;;;;;;5056492;28;20377;-73
2022/07/29 00:21:28;;;;;;;4.03;0.50;;;19.00;66.30;;;;;;5038776;28;20062;-73
2022/07/29 00:23:53;;;;;;;1.95;0.55;;;19.00;66.10;;;;;;5038503;28;20060;-73
2022/07/29 00:26:19;;;;;;;1.58;0.50;;;18.90;66.10;;;;;;5056104;28;20029;-73
2022/07/29 00:28:45;;;;;;;4.35;0.60;;;18.90;66.00;;;;;;5056114;28;20021;-73
2022/07/29 00:31:10;;;;;;;3.95;0.50;;;18.90;66.10;;;;;;5038218;28;20029;-74
2022/07/29 00:33:36;;;;;;;4.30;0.60;;;18.90;66.30;;;;;;5054649;28;20055;-73
2022/07/29 00:36:01;;;;;;;3.00;0.60;;;18.80;66.60;;;;;;5055974;28;20396;-80
2022/07/29 00:38:27;;;;;;;2.85;0.50;;;18.80;66.50;;;;;;5055845;28;20029;-80
2022/07/29 00:40:53;;;;;;;2.22;0.60;;;18.80;66.50;;;;;;5054459;28;20033;-80
2022/07/29 00:43:18;;;;;;;2.72;0.50;;;18.80;66.60;;;;;;5055680;28;20040;-80
2022/07/29 00:45:44;;;;;;;1.10;0.50;;;18.80;66.70;;;;;;5054370;28;20025;-80
2022/07/29 00:48:10;;;;;;;3.10;0.43;;;18.80;66.60;;;;;;5055703;28;20036;-80
2022/07/29 00:50:36;;;;;;;3.67;0.47;;;18.80;67.20;;;;;;5037691;28;20025;-80
2022/07/29 00:53:03;;;;;;;1.70;0.50;;;18.80;66.70;;;;;;5054272;28;20079;-80
2022/07/29 00:55:30;;;;;;;2.63;0.60;;;18.80;66.80;;;;;;5055565;28;20104;-80
2022/07/29 00:57:57;;;;;;;3.53;0.50;;;18.80;67.20;;;;;;5055558;28;20415;-80
2022/07/29 01:00:26;;;;;;;2.47;0.47;;;18.80;67.30;;;;;;5055460;28;20080;-80
2022/07/29 01:02:52;;;;;;;2.45;0.70;;;18.70;67.10;;;;;;5055243;28;20056;-80
2022/07/29 01:05:21;;;;;;;2.20;0.60;;;18.80;67.20;;;;;;5053859;28;20029;-80
2022/07/29 01:07:50;;;;;;;4.13;0.47;;;18.70;67.10;;;;;;5053825;28;20107;-80
2022/07/29 01:10:17;;;;;;;2.35;0.50;;;18.70;67.20;;;;;;5054882;28;20017;-80
2022/07/29 01:12:45;;;;;;;3.67;0.60;;;18.70;67.10;;;;;;5053965;28;20107;-80
2022/07/29 01:15:12;;;;;;;4.88;0.70;;;18.70;67.10;;;;;;5037542;28;20025;-80
2022/07/29 01:17:42;;;;;;;2.95;0.65;;;18.70;67.50;;;;;;5055069;28;20025;-80
2022/07/29 01:20:17;;;;;;;2.25;0.50;;;18.70;68.40;;;;;;5053789;28;20021;-80
2022/07/29 01:23:05;;;;;;;1.33;0.50;;;18.70;67.70;;;;;;5053967;28;20473;-80
2022/07/29 01:26:05;;;;;;;3.22;0.60;;;18.60;67.40;;;;;;5055291;28;20366;-80
2022/07/29 01:28:52;;;;;;;4.30;0.63;;;18.60;67.40;;;;;;5070308;28;20025;-80
2022/07/29 01:31:38;;;;;;;3.15;0.50;;;18.60;67.40;;;;;;5054767;28;20367;-80
2022/07/29 01:34:08;;;;;;;1.88;0.60;;;18.60;67.60;;;;;;5054743;28;20082;-73
2022/07/29 01:36:40;;;;;;;1.92;0.52;;;18.50;67.60;;;;;;5054417;28;20086;-73
2022/07/29 01:39:11;;;;;;;2.90;0.60;;;18.50;67.60;;;;;;5054882;28;20021;-80
2022/07/29 01:41:46;;;;;;;1.77;0.60;;;18.50;68.30;;;;;;5054377;28;20029;-80
2022/07/29 01:44:34;;;;;;;1.88;0.63;;;18.50;67.70;;;;;;5054413;28;20481;-80
2022/07/29 01:47:08;;;;;;;2.28;0.70;;;18.50;67.80;;;;;;5054444;28;20025;-80
2022/07/29 01:49:38;;;;;;;2.28;0.60;;;18.50;67.70;;;;;;5054923;28;20060;-80
2022/07/29 01:52:10;;;;;;;3.65;0.68;;;18.50;67.80;;;;;;5036600;28;20029;-80
2022/07/29 01:54:45;;;;;;;3.50;0.52;;;18.50;68.50;;;;;;5054440;28;20029;-80
2022/07/29 01:57:19;;;;;;;2.75;0.65;;;18.50;68.10;;;;;;5054533;28;20421;-80
2022/07/29 01:59:47;;;;;;;3.50;0.63;;;18.50;68.40;;;;;;5054268;28;20029;-80
2022/07/29 02:02:15;;;;;;;5.07;0.80;;;18.50;68.70;;;;;;5054281;28;20085;-80
2022/07/29 02:04:42;;;;;;;2.50;0.70;;;18.40;69.60;;;;;;5054063;28;20033;-80
2022/07/29 02:07:13;;;;;;;3.45;0.50;;;18.40;69.10;;;;;;5054402;28;20377;-80
2022/07/29 02:09:41;;;;;;;3.53;0.70;;;18.40;69.40;;;;;;5054068;28;20023;-80
2022/07/29 02:12:07;;;;;;;3.00;0.70;;;18.40;69.80;;;;;;5036393;28;20120;-80
2022/07/29 02:14:38;;;;;;;1.95;0.50;;;18.40;69.90;;;;;;5036302;28;20064;-80
2022/07/29 02:17:03;;;;;;;3.47;0.77;;;18.30;69.90;;;;;;5052517;28;20132;-80
2022/07/29 02:19:32;;;;;;;2.50;0.40;;;18.30;69.90;;;;;;5054112;28;20505;-80
2022/07/29 02:21:59;;;;;;;2.97;0.63;;;18.30;70.80;;;;;;5052055;28;20020;-80
2022/07/29 02:24:27;;;;;;;1.42;0.60;;;18.30;70.40;;;;;;5052418;28;20033;-80
2022/07/29 02:26:56;;;;;;;3.28;0.43;;;18.30;70.60;;;;;;5053863;28;20033;-80
2022/07/29 02:29:24;;;;;;;2.58;0.52;;;18.20;70.70;;;;;;5036092;28;20029;-80
2022/07/29 02:31:52;;;;;;;2.15;0.70;;;18.20;71.10;;;;;;5053762;28;20025;-80
2022/07/29 02:34:20;;;;;;;4.53;0.60;;;18.10;71.50;;;;;;5053644;28;20106;-80
2022/07/29 02:36:47;;;;;;;2.28;0.60;;;18.10;72.00;;;;;;5053626;28;20052;-80
2022/07/29 02:39:15;;;;;;;2.75;0.50;;;18.10;72.40;;;;;;5053600;28;20048;-80
2022/07/29 02:41:42;;;;;;;3.28;0.80;;;18.10;72.60;;;;;;5052314;28;20028;-80
2022/07/29 02:44:23;;;;;;;2.22;0.57;;;18.10;72.90;;;;;;5053548;28;20033;-80
2022/07/29 02:47:02;;;;;;;2.03;0.55;;;18.00;73.10;;;;;;5053451;28;20025;-80
2022/07/29 02:49:51;;;;;;;3.72;0.60;;;18.00;73.20;;;;;;5053538;28;20104;-81
2022/07/29 02:52:27;;;;;;;4.50;0.85;;;18.00;73.40;;;;;;5052003;28;20020;-81
2022/07/29 02:54:58;;;;;;;3.20;0.70;;;18.00;73.80;;;;;;5053431;28;20028;-81
2022/07/29 02:57:34;;;;;;;3.72;0.80;;;18.00;74.40;;;;;;5053499;28;20071;-81
2022/07/29 03:00:05;;;;;;;4.03;0.52;;;17.90;74.90;;;;;;5053504;28;20018;-81
2022/07/29 03:02:50;;;;;;;3.53;0.80;;;17.90;75.20;;;;;;5053154;28;20063;-81
2022/07/29 03:05:20;;;;;;;2.78;0.88;;;17.90;76.10;;;;;;5052061;28;20116;-80
2022/07/29 03:07:51;;;;;;;3.22;0.70;;;17.80;76.50;;;;;;5053390;28;20025;-81
2022/07/29 03:10:17;;;;;;;2.28;0.85;;;17.80;76.60;;;;;;5053334;28;20025;-81
2022/07/29 03:12:44;;;;;;;6.68;1.20;;;17.80;77.30;;;;;;5052011;28;20024;-81
2022/07/29 03:15:10;;;;;;;3.20;1.05;;;17.70;77.40;;;;;;5035284;28;20049;-80
2022/07/29 03:17:37;;;;;;;2.25;0.70;;;17.70;78.20;;;;;;5053080;28;20029;-80
2022/07/29 03:20:04;;;;;;;1.92;0.95;;;17.60;78.20;;;;;;5053236;28;20025;-80
2022/07/29 03:22:30;;;;;;;3.55;1.00;;;17.60;78.50;;;;;;5035770;28;20511;-80
2022/07/29 03:24:55;;;;;;;5.32;1.45;;;17.50;78.80;;;;;;5035209;28;20025;-80
2022/07/29 03:27:21;;;;;;;4.40;1.02;;;17.50;79.20;;;;;;5035455;28;20374;-80
2022/07/29 03:29:47;;;;;;;4.65;1.00;;;17.50;79.20;;;;;;5051837;28;20029;-80
2022/07/29 03:32:12;;;;;;;5.72;1.08;;;17.40;79.60;;;;;;5053109;28;20028;-80
2022/07/29 03:34:38;;;;;;;6.15;1.15;;;17.40;79.80;;;;;;5055848;28;20450;-81
2022/07/29 03:37:05;;;;;;;2.10;0.85;;;17.40;79.40;;;;;;5039235;28;20048;-80
2022/07/29 03:39:34;;;;;;;3.25;1.00;;;17.30;79.10;;;;;;5055598;28;20400;-80
2022/07/29 03:42:02;;;;;;;2.80;0.90;;;17.30;79.10;;;;;;5056989;28;20021;-81
2022/07/29 03:44:28;;;;;;;2.55;0.82;;;17.20;79.10;;;;;;5038955;28;20029;-80
2022/07/29 03:46:55;;;;;;;3.67;0.82;;;17.20;79.20;;;;;;5056782;28;20516;-80
2022/07/29 03:49:23;;;;;;;4.22;1.15;;;17.10;79.90;;;;;;5039538;28;20032;-81
2022/07/29 03:51:48;;;;;;;2.33;0.90;;;17.10;80.50;;;;;;5055490;28;20117;-80
2022/07/29 03:54:14;;;;;;;5.38;1.30;;;17.10;80.40;;;;;;5038977;28;20040;-80
2022/07/29 03:56:45;;;;;;;3.50;1.35;;;17.00;80.80;;;;;;5056641;28;20440;-80
2022/07/29 03:59:12;;;;;;;3.13;0.93;;;17.00;81.10;;;;;;5039465;28;20478;-81
2022/07/29 04:01:39;;;;;;;6.90;1.60;;;17.00;81.30;;;;;;5055209;28;20044;-80
2022/07/29 04:04:05;;;;;;;3.63;1.20;;;17.00;81.20;;;;;;5056718;28;20032;-80
2022/07/29 04:06:41;;;;;;;3.25;0.95;;;16.90;81.90;;;;;;5055209;28;20029;-80
2022/07/29 04:09:07;;;;;;;4.75;1.67;;;16.90;81.40;;;;;;5053713;28;20484;-80
2022/07/29 04:11:34;;;;;;;3.60;1.42;;;16.80;82.10;;;;;;5062284;28;20086;-80
2022/07/29 04:13:59;;;;;;;2.50;1.25;;;16.80;82.10;;;;;;5068191;28;20029;-80
2022/07/29 04:16:25;;;;;;;5.55;1.60;;;16.80;82.40;;;;;;5058065;28;20029;-81
2022/07/29 04:18:50;;;;;;;3.22;1.20;;;16.70;82.10;;;;;;5076078;28;20362;-80
2022/07/29 04:21:16;;;;;;;6.22;1.58;;;16.70;81.80;;;;;;5073734;28;20028;-80
2022/07/29 04:23:44;;;;;;;4.93;1.42;;;16.60;82.00;;;;;;5058071;28;20027;-80
2022/07/29 04:26:10;;;;;;;4.45;1.40;;;16.50;81.90;;;;;;5076157;28;20472;-81
2022/07/29 04:28:38;;;;;;;6.10;1.63;;;16.50;82.10;;;;;;5076162;28;20032;-80
2022/07/29 04:31:03;;;;;;;4.07;1.40;;;16.50;82.90;;;;;;5075924;28;20127;-80
2022/07/29 04:33:29;;;;;;;4.40;1.70;;;16.40;82.90;;;;;;5075889;28;20083;-80
2022/07/29 04:35:54;;;;;;;1.85;1.10;;;16.40;83.20;;;;;;5075936;28;20033;-81
2022/07/29 04:38:20;;;;;;;4.28;1.70;;;16.50;83.00;;;;;;5058117;28;20477;-81
2022/07/29 04:40:47;;;;;;;5.40;1.58;;;16.40;82.90;;;;;;5075869;28;20036;-80
2022/07/29 04:43:13;;;;;;;4.35;1.88;;;16.40;83.30;;;;;;5057942;28;20032;-80
2022/07/29 04:45:39;;;;;;;5.57;1.60;;;16.40;83.30;;;;;;5073852;28;20032;-80
2022/07/29 04:48:05;;;;;;;3.05;1.35;;;16.40;83.50;;;;;;5057934;28;20027;-80
2022/07/29 04:50:30;;;;;;;3.78;1.13;;;16.40;83.70;;;;;;5075819;28;20078;-79
2022/07/29 04:52:56;;;;;;;3.58;1.52;;;16.40;83.70;;;;;;5057754;28;20079;-79
2022/07/29 04:55:21;;;;;;;7.15;2.20;;;16.40;83.60;;;;;;5041052;28;20082;-80
2022/07/29 04:57:47;;;;;;;3.83;1.70;;;16.40;84.00;;;;;;5057774;28;20055;-80
2022/07/29 05:00:13;;;;;;;7.13;2.22;;;16.40;83.70;;;;;;5075571;28;20111;-80
2022/07/29 05:02:39;;;;;;;2.83;1.20;;;16.40;83.80;;;;;;5036754;28;20048;-80
2022/07/29 05:05:04;;;;;;;3.60;1.50;;;16.30;83.70;;;;;;5055587;28;20036;-80
2022/07/29 05:07:30;;;;;;;6.18;1.75;;;16.30;83.50;;;;;;5069128;28;20542;-78
2022/07/29 05:09:56;;;;;;;2.63;1.00;;;16.30;83.80;;;;;;5075136;28;20381;-79
2022/07/29 05:12:23;;;;;;;4.65;1.30;;;16.30;83.60;;;;;;5075067;28;20461;-75
2022/07/29 05:14:49;;;;;;;5.20;1.30;;;16.30;83.60;;;;;;5056215;28;20032;-73
2022/07/29 05:17:14;;;;;;;4.38;1.55;;;16.40;83.90;;;;;;5056752;28;20036;-78
2022/07/29 05:19:40;;;;;;;4.40;1.27;;;16.40;83.70;;;;;;5057489;28;20047;-80
2022/07/29 05:22:06;;;;;;;3.22;1.23;;;16.40;83.70;;;;;;5074146;28;20032;-79
2022/07/29 05:24:31;;;;;;;5.00;1.33;;;16.40;83.70;;;;;;5074728;28;20032;-78
2022/07/29 05:26:57;;;;;;;3.03;1.55;;;16.40;84.00;;;;;;5057028;28;20091;-78
2022/07/29 05:29:22;;;;;;;4.60;1.40;;;16.40;84.00;;;;;;5074812;28;20025;-78
2022/07/29 05:31:48;;;;;;;4.55;1.63;;;16.40;83.80;;;;;;5074778;28;20428;-78
2022/07/29 05:34:14;;;;;;;2.22;1.08;;;16.40;83.70;;;;;;5057416;28;20116;-78
2022/07/29 05:36:39;;;;;;;4.45;1.48;;;16.50;84.50;;;;;;5056761;28;20448;-78
2022/07/29 05:39:05;;;;;;;3.47;1.38;;;16.50;83.70;;;;;;5056843;28;20024;-78
2022/07/29 05:41:34;;;;;;;3.08;1.20;;;16.60;83.80;;;;;;5075077;28;20460;-78
2022/07/29 05:43:59;;;;;;;3.55;1.77;;;16.50;83.50;;;;;;5074379;28;20070;-78
2022/07/29 05:46:25;;;;;;;2.33;1.08;;;16.60;83.60;;;;;;5074505;28;20036;-78
2022/07/29 05:48:50;;;;;;;3.38;1.10;;;16.70;83.60;;;;;;5056592;28;20029;-78
2022/07/29 05:51:16;;;;;;;7.18;1.92;;;16.70;83.50;;;;;;5056492;28;20028;-78
2022/07/29 05:53:41;;;;;;;2.03;1.00;;;16.70;83.50;;;;;;5056425;28;20024;-78
2022/07/29 05:56:07;;;;;;;5.20;1.40;;;16.80;83.60;;;;;;5056467;28;20033;-78
2022/07/29 05:58:33;;;;;;;2.85;1.20;;;16.70;83.60;;;;;;5073480;28;20033;-78
2022/07/29 06:00:59;;;;;;;3.72;1.40;;;16.70;83.50;;;;;;5056250;28;20032;-78
2022/07/29 06:03:25;;;;;;;2.97;1.33;;;16.80;84.20;;;;;;5056185;28;20511;-78
2022/07/29 06:05:51;;;;;;;2.92;1.40;;;16.90;83.60;;;;;;5074586;28;20074;-80
2022/07/29 06:08:17;;;;;;;3.25;1.48;;;16.90;83.60;;;;;;5056247;28;20029;-78
2022/07/29 06:10:43;;;;;;;6.30;1.05;;;17.00;83.70;;;;;;5074350;28;20033;-79
2022/07/29 06:13:08;;;;;;;3.78;1.00;;;17.00;83.60;;;;;;5073946;28;20024;-79
2022/07/29 06:15:34;;;;;;;3.67;1.20;;;17.10;83.40;;;;;;5073868;28;20033;-79
2022/07/29 06:18:00;;;;;;;2.65;1.20;;;17.10;83.20;;;;;;5074221;28;20492;-79
2022/07/29 06:20:29;;;;;;;3.67;1.17;;;17.20;83.10;;;;;;5073927;28;20081;-78
2022/07/29 06:22:54;;;;;;;4.70;1.55;;;17.20;83.10;;;;;;5055989;28;20028;-78
2022/07/29 06:25:20;;;;;;;5.95;1.42;;;17.30;83.00;;;;;;5055764;28;20036;-79
2022/07/29 06:27:46;;;;;;;3.03;1.10;;;17.30;82.80;;;;;;5055888;28;20035;-79
2022/07/29 06:30:12;;;;;;;5.22;1.90;;;17.40;82.70;;;;;;5055855;28;20112;-78
2022/07/29 06:32:38;;;;;;;5.00;1.63;;;17.40;82.50;;;;;;5063027;28;20028;-79
2022/07/29 06:35:03;;;;;;;3.63;1.30;;;17.50;82.50;;;;;;5074119;28;20051;-78
2022/07/29 06:37:29;;;;;;;3.30;1.00;;;17.60;82.20;;;;;;5073730;28;20051;-79
2022/07/29 06:42:45;;;;;;;6.00;1.23;;;17.70;81.70;;;;;;5074100;28;20047;-79
2022/07/29 06:45:11;;;;;;;2.90;1.33;;;17.70;81.30;;;;;;5055385;28;20066;-78
2022/07/29 06:47:37;;;;;;;2.92;1.10;;;17.80;81.80;;;;;;5038901;28;20550;-78
2022/07/29 06:50:04;;;;;;;2.67;0.98;;;17.90;81.00;;;;;;5072228;28;20016;-79
2022/07/29 06:52:29;;;;;;;3.35;1.20;;;17.90;80.50;;;;;;5073385;28;20012;-79
2022/07/29 06:54:55;;;;;;;3.92;1.15;;;18.00;80.10;;;;;;5073990;28;20025;-79
2022/07/29 06:57:21;;;;;;;4.13;1.17;;;18.00;80.00;;;;;;5073224;28;20028;-79
2022/07/29 06:59:47;;;;;;;2.97;1.10;;;18.00;79.60;;;;;;5073415;28;20044;-79
2022/07/29 07:02:13;;;;;;;2.33;1.00;;;18.10;79.30;;;;;;5035756;28;20045;-78
2022/07/29 07:04:39;;;;;;;4.47;1.20;;;18.10;79.20;;;;;;5052120;28;20078;-78
2022/07/29 07:07:05;;;;;;;3.53;1.15;;;18.10;79.70;;;;;;5073203;28;20111;-78
2022/07/29 07:09:30;;;;;;;2.83;0.90;;;18.10;79.00;;;;;;5059624;28;20052;-78
2022/07/29 07:11:56;;;;;;;2.50;0.80;;;18.10;78.90;;;;;;5080490;28;20162;-78
2022/07/29 07:14:22;;;;;;;3.83;1.10;;;18.20;78.70;;;;;;5061942;28;20081;-79
2022/07/29 07:16:47;;;;;;;4.03;1.08;;;18.30;78.60;;;;;;5079867;28;20492;-79
2022/07/29 07:19:13;;;;;;;2.72;1.08;;;18.30;78.50;;;;;;5079828;28;20052;-79
2022/07/29 07:21:38;;;;;;;2.63;1.05;;;18.40;78.60;;;;;;5061998;28;20119;-79
2022/07/29 07:24:05;;;;;;;2.47;0.90;;;18.50;78.50;;;;;;5046189;28;20107;-79
2022/07/29 07:26:30;;;;;;;3.22;1.02;;;18.60;78.40;;;;;;5061846;28;20496;-78
2022/07/29 07:28:56;;;;;;;6.10;1.02;;;18.60;78.20;;;;;;5061696;28;20052;-78
2022/07/29 07:31:22;;;;;;;5.72;1.20;;;18.70;78.10;;;;;;5078868;28;20042;-81
2022/07/29 07:33:47;;;;;;;3.58;1.30;;;18.70;77.90;;;;;;5079685;28;20372;-82
2022/07/29 07:36:13;;;;;;;4.22;0.95;;;18.80;77.90;;;;;;5045615;28;20399;-83
2022/07/29 07:38:39;;;;;;;3.40;0.98;;;18.80;77.90;;;;;;5061939;28;20052;-82
2022/07/29 07:41:05;;;;;;;4.50;1.00;;;18.90;77.90;;;;;;5045380;28;20036;-82
2022/07/29 07:43:30;;;;;;;3.20;1.23;;;18.90;77.60;;;;;;5061864;28;20028;-82
2022/07/29 07:45:56;;;;;;;2.95;1.13;;;19.00;77.60;;;;;;5061548;28;20072;-82
2022/07/29 07:48:22;;;;;;;4.25;1.02;;;19.10;77.70;;;;;;5047636;28;20499;-81
2022/07/29 07:50:49;;;;;;;3.60;1.15;;;19.10;77.70;;;;;;5058587;28;20024;-81
2022/07/29 07:53:15;;;;;;;4.25;1.23;;;19.20;77.60;;;;;;5058363;28;20021;-82
2022/07/29 07:55:42;;;;;;;3.65;0.98;;;19.30;77.30;;;;;;5059506;28;20469;-82
2022/07/29 07:58:08;;;;;;;3.70;1.33;;;19.30;77.10;;;;;;5058312;28;20055;-82
2022/07/29 08:00:34;;;;;;;2.85;0.90;;;19.40;77.00;;;;;;5041237;28;20447;-82
2022/07/29 08:02:59;;;;;;;4.28;0.98;;;19.50;76.80;;;;;;5038299;28;20045;-82
2022/07/29 08:05:25;;;;;;;2.97;1.02;;;19.50;76.50;;;;;;5043724;28;20033;-82
2022/07/29 08:07:50;;;;;;;2.97;0.82;;;19.60;76.30;;;;;;5059191;28;20037;-83
2022/07/29 08:11:03;;;;;;;2.20;0.90;;;19.60;76.10;;;;;;5059569;28;20068;-83
2022/07/29 08:13:05;;;;;;;5.18;1.08;;;19.60;76.00;;;;;;5048731;28;20025;-82
2022/07/29 08:15:32;;;;;;;2.35;0.70;;;19.70;75.80;;;;;;5074647;28;20401;-83
2022/07/29 08:17:57;;;;;;;5.43;1.00;;;19.70;75.70;;;;;;5074687;28;20017;-82
2022/07/29 08:20:23;;;;;;;10.30;1.30;;;19.70;75.60;;;;;;5072647;28;20182;-82
2022/07/29 08:22:48;;;;;;;2.72;1.02;;;19.70;75.40;;;;;;5056274;28;20036;-82
2022/07/29 08:25:14;;;;;;;2.55;1.25;;;19.80;75.40;;;;;;5071571;28;20032;-82
2022/07/29 08:27:40;;;;;;;4.03;0.90;;;19.70;75.30;;;;;;5054943;28;20036;-82
2022/07/29 08:30:06;;;;;;;2.63;0.98;;;19.80;75.20;;;;;;5055045;28;20025;-82
2022/07/29 08:32:32;;;;;;;2.88;0.82;;;19.80;75.20;;;;;;5054535;28;20071;-82
2022/07/29 08:34:57;;;;;;;3.15;1.20;;;19.80;75.10;;;;;;5038121;28;20033;-83
2022/07/29 08:37:23;;;;;;;6.45;1.10;;;19.80;75.10;;;;;;5055817;28;20044;-82
2022/07/29 08:39:48;;;;;;;3.45;1.15;;;19.90;75.10;;;;;;5054426;28;20037;-83
2022/07/29 08:42:16;;;;;;;2.30;0.77;;;19.90;75.00;;;;;;5071073;28;20025;-82
2022/07/29 08:44:42;;;;;;;4.45;1.10;;;19.90;75.00;;;;;;5055703;28;20070;-82
2022/07/29 08:47:08;;;;;;;4.53;1.30;;;20.00;75.30;;;;;;5056386;28;20024;-82
2022/07/29 08:49:35;;;;;;;6.18;0.90;;;20.00;74.90;;;;;;5054478;28;20032;-83
2022/07/29 08:52:02;;;;;;;5.63;1.00;;;20.10;74.90;;;;;;5055426;28;20013;-82
2022/07/29 08:54:28;;;;;;;6.88;1.30;;;20.10;74.90;;;;;;5032401;28;20031;-83
2022/07/29 08:56:55;;;;;;;3.20;0.80;;;20.20;75.10;;;;;;5031310;28;20493;-82
2022/07/29 08:59:24;;;;;;;2.80;1.10;;;20.30;75.30;;;;;;5035471;28;20473;-82
2022/07/29 09:01:53;;;;;;;3.70;0.95;;;20.30;75.40;;;;;;5054087;28;20485;-82
2022/07/29 09:04:20;;;;;;;5.28;1.23;;;20.40;75.30;;;;;;5054195;28;20033;-82
2022/07/29 09:06:51;;;;;;;4.20;0.98;;;20.40;75.10;;;;;;5054204;28;20031;-82
2022/07/29 09:09:16;;;;;;;4.18;1.05;;;20.50;75.20;;;;;;5056057;28;20021;-82
2022/07/29 09:11:42;;;;;;;4.88;1.00;;;20.50;75.30;;;;;;5055335;28;20029;-82
2022/07/29 09:14:12;;;;;;;5.45;1.17;;;20.70;75.40;;;;;;5039052;28;20035;-82
2022/07/29 09:16:54;;;;;;;3.42;1.00;;;20.70;75.30;;;;;;5057928;28;20020;-82
2022/07/29 09:19:40;;;;;;;1.75;0.80;;;20.70;75.20;;;;;;5056712;28;20094;-82
2022/07/29 09:22:09;;;;;;;2.30;1.00;;;20.80;75.10;;;;;;5038302;28;20029;-82
2022/07/29 09:24:34;;;;;;;2.38;0.80;;;20.80;75.00;;;;;;5055963;28;20076;-82
2022/07/29 09:27:01;;;;;;;4.07;1.05;;;20.70;74.80;;;;;;5056525;28;20025;-82
2022/07/29 09:29:27;;;;;;;4.72;1.10;;;20.80;74.60;;;;;;5051026;28;20017;-82
2022/07/29 09:31:55;;;;;;;3.88;1.10;;;20.80;75.30;;;;;;5065537;28;20066;-82
2022/07/29 09:34:26;;;;;;;2.28;0.90;;;20.80;74.40;;;;;;5055008;28;20052;-82
2022/07/29 09:36:54;;;;;;;2.72;0.90;;;20.80;74.20;;;;;;5055303;28;20025;-82
2022/07/29 09:39:29;;;;;;;3.13;0.90;;;20.90;74.00;;;;;;5054980;28;20021;-82
2022/07/29 09:41:57;;;;;;;4.10;0.90;;;21.00;73.60;;;;;;5054682;28;20485;-82
2022/07/29 09:44:24;;;;;;;4.28;0.98;;;21.10;73.60;;;;;;5053231;28;20474;-82
2022/07/29 09:46:58;;;;;;;4.18;0.95;;;21.10;73.40;;;;;;5054596;28;20024;-82
2022/07/29 09:49:25;;;;;;;3.42;1.30;;;21.30;73.20;;;;;;5054467;28;20021;-82
2022/07/29 09:52:20;;;;;;;2.20;0.90;;;21.40;72.80;;;;;;5054505;28;20024;-82
2022/07/29 09:54:46;;;;;;;3.45;0.82;;;21.60;72.50;;;;;;5041524;28;20541;-82
2022/07/29 09:57:25;;;;;;;4.72;1.38;;;21.80;72.40;;;;;;5053146;28;20108;-82
2022/07/29 10:00:09;;;;;;;2.38;0.80;;;21.90;72.20;;;;;;5049753;28;20152;-84
2022/07/29 10:02:37;;;;;;;3.70;0.73;;;22.20;72.20;;;;;;5055174;28;20049;-84
2022/07/29 10:05:05;;;;;;;4.07;0.90;;;22.30;72.20;;;;;;5056015;28;20412;-84
2022/07/29 10:07:52;;;;;;;2.63;0.80;;;22.50;71.80;;;;;;5056128;28;20495;-84
2022/07/29 10:10:26;;;;;;;2.05;0.70;;;22.70;71.40;;;;;;5073962;28;20509;-84
2022/07/29 10:12:55;;;;;;;4.55;0.90;;;22.90;71.10;;;;;;5073861;28;20066;-83
2022/07/29 10:15:26;;;;;;;3.25;0.80;;;23.00;70.60;;;;;;5056070;28;20028;-84
2022/07/29 10:17:56;;;;;;;4.13;0.90;;;23.20;69.90;;;;;;5056069;28;20426;-84
2022/07/29 10:20:23;;;;;;;3.20;0.90;;;23.20;69.10;;;;;;5055961;28;20032;-84
2022/07/29 10:22:50;;;;;;;2.47;0.90;;;23.20;68.60;;;;;;5073717;28;20488;-82
2022/07/29 10:25:17;;;;;;;5.00;0.95;;;23.30;68.20;;;;;;5073740;28;20067;-82
2022/07/29 10:27:44;;;;;;;2.50;0.90;;;23.40;68.00;;;;;;5073921;28;20012;-83
2022/07/29 10:30:11;;;;;;;3.45;1.20;;;23.50;67.80;;;;;;5073858;28;20023;-84
2022/07/29 10:32:50;;;;;;;3.67;1.10;;;23.60;67.30;;;;;;5055839;28;20480;-83
2022/07/29 10:35:30;;;;;;;3.15;0.90;;;23.60;67.00;;;;;;5073623;28;20107;-83
2022/07/29 10:38:23;;;;;;;3.70;0.90;;;23.70;66.90;;;;;;5055694;28;20032;-83
2022/07/29 10:41:26;;;;;;;3.33;1.10;;;23.80;66.50;;;;;;5089224;28;20025;-84
2022/07/29 10:43:56;;;;;;;3.90;1.00;;;24.00;66.30;;;;;;5088723;28;20031;-78
2022/07/29 10:46:22;;;;;;;5.07;1.10;;;24.10;65.90;;;;;;5072693;28;20024;-79
2022/07/29 10:49:16;;;;;;;3.55;0.95;;;24.30;65.60;;;;;;5055881;28;20031;-78
2022/07/29 10:51:52;;;;;;;2.75;1.35;;;24.60;65.00;;;;;;5055599;28;20092;-78
2022/07/29 10:54:19;;;;;;;2.00;0.68;;;24.80;65.00;;;;;;5073737;28;20031;-78
2022/07/29 10:56:44;;;;;;;4.05;1.15;;;24.90;65.00;;;;;;5038877;28;20615;-78
2022/07/29 10:59:19;;;;;;;4.00;1.00;;;25.10;64.70;;;;;;5055363;28;20119;-78
2022/07/29 11:01:49;;;;;;;4.90;1.02;;;25.30;63.80;;;;;;5073363;28;21517;-78
2022/07/29 11:04:15;;;;;;;2.65;1.00;;;25.40;63.30;;;;;;5055139;28;20021;-79
2022/07/29 11:07:02;;;;;;;4.82;0.98;;;25.60;62.70;;;;;;5055481;28;20033;-79
2022/07/29 11:09:30;;;;;;;5.13;1.08;;;25.60;61.80;;;;;;5073215;28;20082;-79
2022/07/29 11:11:57;;;;;;;1.80;0.60;;;25.70;61.50;;;;;;5038908;28;20435;-79
2022/07/29 11:14:54;;;;;;;2.63;0.75;;;25.90;61.10;;;;;;5055592;28;20036;-78
2022/07/29 11:17:20;;;;;;;4.30;1.15;;;26.00;60.40;;;;;;5054680;28;20025;-79
2022/07/29 11:19:46;;;;;;;3.40;0.80;;;26.10;60.30;;;;;;5055279;28;20477;-78
2022/07/29 11:22:32;;;;;;;5.97;1.13;;;26.20;60.20;;;;;;5056352;28;20028;-78
2022/07/29 11:25:17;;;;;;;2.42;0.80;;;26.50;60.10;;;;;;5073125;28;20074;-78
2022/07/29 11:27:44;;;;;;;4.75;0.70;;;27.20;60.20;;;;;;5055110;28;20021;-78
2022/07/29 11:30:11;;;;;;;3.15;0.80;;;28.10;60.50;;;;;;5051701;28;20013;-78
2022/07/29 11:32:42;;;;;;;2.13;0.73;;;28.80;59.40;;;;;;5051964;28;20418;-78
2022/07/29 11:35:21;;;;;;;4.40;0.70;;;29.20;58.10;;;;;;5053080;28;20017;-79
2022/07/29 11:38:22;;;;;;;2.38;0.50;;;29.50;56.50;;;;;;5051879;28;20021;-78
2022/07/29 11:41:21;;;;;;;2.75;0.55;;;29.60;54.90;;;;;;5034966;28;20108;-78
2022/07/29 11:43:54;;;;;;;2.17;0.57;;;29.70;54.30;;;;;;5051775;28;20025;-78
2022/07/29 11:46:46;;;;;;;2.55;0.60;;;29.80;54.30;;;;;;5052934;28;20075;-78
2022/07/29 11:49:12;;;;;;;4.40;0.55;;;29.90;52.90;;;;;;5035474;28;20032;-78
2022/07/29 11:51:38;;;;;;;2.55;0.63;;;29.90;52.90;;;;;;5051377;28;20057;-78
2022/07/29 11:54:05;;;;;;;1.85;0.50;;;30.00;52.40;;;;;;5068082;28;20040;-78
2022/07/29 11:56:38;;;;;;;2.75;0.65;;;30.00;51.90;;;;;;5055027;28;20425;-78
2022/07/29 11:59:06;;;;;;;4.07;0.63;;;30.20;51.20;;;;;;5059888;28;20495;-77
2022/07/29 12:01:32;;;;;;;4.68;0.60;;;30.30;51.40;;;;;;5058785;28;20076;-77
2022/07/29 12:04:07;;;;;;;4.60;0.70;;;30.50;50.40;;;;;;5075297;28;20102;-78
2022/07/29 12:06:34;;;;;;;2.90;0.70;;;30.50;49.60;;;;;;5083171;28;20040;-78
2022/07/29 12:09:00;;;;;;;1.77;0.50;;;30.70;49.70;;;;;;5056340;28;20473;-77
2022/07/29 12:11:26;;;;;;;2.40;0.80;;;30.80;49.60;;;;;;5038747;28;20036;-79
2022/07/29 12:13:52;;;;;;;2.63;0.73;;;31.00;49.60;;;;;;5071905;28;20098;-77
2022/07/29 12:16:19;;;;;;;2.53;0.68;;;31.00;49.30;;;;;;5038489;28;20029;-78
2022/07/29 12:18:56;;;;;;;2.10;0.68;;;31.10;49.20;;;;;;5039066;28;20039;-78
2022/07/29 12:21:21;;;;;;;2.88;0.63;;;31.20;48.80;;;;;;5055929;28;20032;-79
2022/07/29 12:23:54;;;;;;;3.65;0.77;;;31.30;48.80;;;;;;5073751;28;20078;-79
2022/07/29 12:26:20;;;;;;;1.92;0.60;;;31.40;48.20;;;;;;5058349;28;20384;-78
2022/07/29 12:28:46;;;;;;;3.60;0.50;;;31.60;48.10;;;;;;5075633;28;20025;-78
2022/07/29 12:31:16;;;;;;;2.47;0.77;;;31.70;47.80;;;;;;5058161;28;20028;-80
2022/07/29 12:33:42;;;;;;;2.20;0.80;;;31.90;47.60;;;;;;5058306;28;20460;-79
2022/07/29 12:36:08;;;;;;;2.65;0.60;;;32.10;48.10;;;;;;5042455;28;20037;-79
2022/07/29 12:38:36;;;;;;;3.90;0.73;;;32.20;47.20;;;;;;5076006;28;20025;-79
2022/07/29 12:41:03;;;;;;;2.28;0.60;;;32.30;47.10;;;;;;5041397;28;20372;-79
2022/07/29 12:43:29;;;;;;;2.03;0.63;;;32.30;47.10;;;;;;5074733;28;20028;-78
2022/07/29 12:45:56;;;;;;;4.72;0.70;;;32.30;47.00;;;;;;5024602;28;20412;-79
2022/07/29 12:48:39;;;;;;;1.70;0.68;;;32.40;47.00;;;;;;5041123;28;20029;-79
2022/07/29 12:51:07;;;;;;;3.10;0.90;;;32.50;46.30;;;;;;5075731;28;20021;-78
2022/07/29 12:53:33;;;;;;;5.75;0.60;;;32.50;46.30;;;;;;5058097;28;20025;-79
2022/07/29 12:56:02;;;;;;;2.00;0.60;;;32.60;46.20;;;;;;5057689;28;20025;-78
2022/07/29 12:58:36;;;;;;;2.33;0.60;;;32.80;45.90;;;;;;5058128;28;20021;-78
2022/07/29 13:01:04;;;;;;;3.25;0.70;;;33.00;45.40;;;;;;5057704;28;20021;-79